Terminal Aerodrome Forecast
Issued by NWS

Current Version | Previous Version | Graphics & Text | Print | Product List | Glossary On
Versions: 1 2 3 4 5 6 7 8 9 10 11 12 13 14 15 16 17 18 19 20 21 22 23
000
FTUS41 KILN 181136
TAFLUK
TAF
KLUK 181136Z 1812/1912 26007KT P6SM VCSH OVC022
      TEMPO 1812/1813 5SM -DZ BR OVC011
     FM181300 26007KT P6SM OVC011
     FM181500 25008KT P6SM OVC018
     FM182200 24006KT P6SM BKN025
     FM190300 20005KT P6SM SCT025
     FM190600 19004KT P6SM BKN250=

USA.gov is the U.S. government's official web portal to all federal, state and local government web resources and services.